sensor_id;sensor_type;location;lat;lon;timestamp;P1;durP1;ratioP1;P2;durP2;ratioP2
19798;SDS011;10059;59.850;10.454;2023-03-01T00:01:27;1.73;;;0.60;;
19798;SDS011;10059;59.850;10.454;2023-03-01T00:03:55;0.93;;;0.60;;
19798;SDS011;10059;59.850;10.454;2023-03-01T00:06:23;0.80;;;0.50;;
19798;SDS011;10059;59.850;10.454;2023-03-01T00:08:51;0.73;;;0.40;;
19798;SDS011;10059;59.850;10.454;2023-03-01T00:11:18;1.30;;;0.70;;
19798;SDS011;10059;59.850;10.454;2023-03-01T00:13:48;0.80;;;0.50;;
19798;SDS011;10059;59.850;10.454;2023-03-01T00:16:18;1.57;;;0.60;;
19798;SDS011;10059;59.850;10.454;2023-03-01T00:18:47;0.60;;;0.50;;
19798;SDS011;10059;59.850;10.454;2023-03-01T00:21:15;0.70;;;0.60;;
19798;SDS011;10059;59.850;10.454;2023-03-01T00:23:42;0.50;;;0.50;;
19798;SDS011;10059;59.850;10.454;2023-03-01T00:26:10;0.77;;;0.47;;
19798;SDS011;10059;59.850;10.454;2023-03-01T00:28:39;0.40;;;0.40;;
19798;SDS011;10059;59.850;10.454;2023-03-01T00:31:07;0.47;;;0.30;;
19798;SDS011;10059;59.850;10.454;2023-03-01T00:33:35;0.50;;;0.40;;
19798;SDS011;10059;59.850;10.454;2023-03-01T00:36:04;1.47;;;0.67;;
19798;SDS011;10059;59.850;10.454;2023-03-01T00:38:34;0.90;;;0.50;;
19798;SDS011;10059;59.850;10.454;2023-03-01T00:41:05;3.13;;;0.40;;
19798;SDS011;10059;59.850;10.454;2023-03-01T00:43:32;0.50;;;0.50;;
19798;SDS011;10059;59.850;10.454;2023-03-01T00:46:01;0.50;;;0.40;;
19798;SDS011;10059;59.850;10.454;2023-03-01T00:48:29;0.67;;;0.40;;
19798;SDS011;10059;59.850;10.454;2023-03-01T00:50:56;0.50;;;0.50;;
19798;SDS011;10059;59.850;10.454;2023-03-01T00:53:24;1.43;;;0.50;;
19798;SDS011;10059;59.850;10.454;2023-03-01T00:55:51;0.50;;;0.50;;
19798;SDS011;10059;59.850;10.454;2023-03-01T00:58:18;0.60;;;0.50;;
19798;SDS011;10059;59.850;10.454;2023-03-01T01:00:44;0.53;;;0.40;;
19798;SDS011;10059;59.850;10.454;2023-03-01T01:03:11;0.43;;;0.40;;
19798;SDS011;10059;59.850;10.454;2023-03-01T01:05:38;0.43;;;0.30;;
19798;SDS011;10059;59.850;10.454;2023-03-01T01:08:05;0.30;;;0.30;;
19798;SDS011;10059;59.850;10.454;2023-03-01T01:10:34;0.30;;;0.30;;
19798;SDS011;10059;59.850;10.454;2023-03-01T01:13:01;0.30;;;0.30;;
19798;SDS011;10059;59.850;10.454;2023-03-01T01:15:28;0.23;;;0.23;;
19798;SDS011;10059;59.850;10.454;2023-03-01T01:17:55;0.57;;;0.37;;
19798;SDS011;10059;59.850;10.454;2023-03-01T01:20:21;0.30;;;0.30;;
19798;SDS011;10059;59.850;10.454;2023-03-01T01:22:48;0.30;;;0.30;;
19798;SDS011;10059;59.850;10.454;2023-03-01T01:25:16;0.30;;;0.30;;
19798;SDS011;10059;59.850;10.454;2023-03-01T01:27:44;0.30;;;0.30;;
19798;SDS011;10059;59.850;10.454;2023-03-01T01:30:11;0.20;;;0.20;;
19798;SDS011;10059;59.850;10.454;2023-03-01T01:32:39;0.30;;;0.30;;
19798;SDS011;10059;59.850;10.454;2023-03-01T01:35:06;0.50;;;0.30;;
19798;SDS011;10059;59.850;10.454;2023-03-01T01:37:33;0.60;;;0.30;;
19798;SDS011;10059;59.850;10.454;2023-03-01T01:40:02;0.57;;;0.40;;
19798;SDS011;10059;59.850;10.454;2023-03-01T01:42:30;0.30;;;0.30;;
19798;SDS011;10059;59.850;10.454;2023-03-01T01:45:26;0.40;;;0.40;;
19798;SDS011;10059;59.850;10.454;2023-03-01T01:47:59;0.70;;;0.33;;
19798;SDS011;10059;59.850;10.454;2023-03-01T01:50:30;0.50;;;0.40;;
19798;SDS011;10059;59.850;10.454;2023-03-01T01:53:04;0.40;;;0.40;;
19798;SDS011;10059;59.850;10.454;2023-03-01T01:55:34;0.60;;;0.50;;
19798;SDS011;10059;59.850;10.454;2023-03-01T01:58:05;0.47;;;0.47;;
19798;SDS011;10059;59.850;10.454;2023-03-01T02:00:36;0.70;;;0.53;;
19798;SDS011;10059;59.850;10.454;2023-03-01T02:03:05;0.60;;;0.57;;
19798;SDS011;10059;59.850;10.454;2023-03-01T02:05:36;1.50;;;0.67;;
19798;SDS011;10059;59.850;10.454;2023-03-01T02:08:09;0.80;;;0.60;;
19798;SDS011;10059;59.850;10.454;2023-03-01T02:10:37;0.60;;;0.50;;
19798;SDS011;10059;59.850;10.454;2023-03-01T02:13:04;1.83;;;0.60;;
19798;SDS011;10059;59.850;10.454;2023-03-01T02:15:32;2.50;;;0.60;;
19798;SDS011;10059;59.850;10.454;2023-03-01T02:18:02;0.93;;;0.60;;
19798;SDS011;10059;59.850;10.454;2023-03-01T02:20:31;1.33;;;0.63;;
19798;SDS011;10059;59.850;10.454;2023-03-01T02:23:01;1.63;;;0.67;;
19798;SDS011;10059;59.850;10.454;2023-03-01T02:25:32;0.80;;;0.60;;
19798;SDS011;10059;59.850;10.454;2023-03-01T02:28:08;2.20;;;0.73;;
19798;SDS011;10059;59.850;10.454;2023-03-01T02:30:46;1.50;;;0.70;;
19798;SDS011;10059;59.850;10.454;2023-03-01T02:33:29;0.90;;;0.50;;
19798;SDS011;10059;59.850;10.454;2023-03-01T02:35:57;0.70;;;0.70;;
19798;SDS011;10059;59.850;10.454;2023-03-01T02:38:26;1.83;;;0.87;;
19798;SDS011;10059;59.850;10.454;2023-03-01T02:40:54;1.03;;;0.57;;
19798;SDS011;10059;59.850;10.454;2023-03-01T02:43:25;2.13;;;0.70;;
19798;SDS011;10059;59.850;10.454;2023-03-01T02:45:57;1.03;;;0.67;;
19798;SDS011;10059;59.850;10.454;2023-03-01T02:48:25;1.23;;;0.70;;
19798;SDS011;10059;59.850;10.454;2023-03-01T02:50:57;1.57;;;0.60;;
19798;SDS011;10059;59.850;10.454;2023-03-01T02:53:35;0.87;;;0.50;;
19798;SDS011;10059;59.850;10.454;2023-03-01T02:56:09;1.40;;;0.70;;
19798;SDS011;10059;59.850;10.454;2023-03-01T02:58:39;0.90;;;0.70;;
19798;SDS011;10059;59.850;10.454;2023-03-01T03:01:10;0.90;;;0.70;;
19798;SDS011;10059;59.850;10.454;2023-03-01T03:03:38;0.90;;;0.70;;
19798;SDS011;10059;59.850;10.454;2023-03-01T03:06:05;1.50;;;0.90;;
19798;SDS011;10059;59.850;10.454;2023-03-01T03:08:32;0.93;;;0.67;;
19798;SDS011;10059;59.850;10.454;2023-03-01T03:10:59;1.20;;;0.70;;
19798;SDS011;10059;59.850;10.454;2023-03-01T03:13:26;0.90;;;0.70;;
19798;SDS011;10059;59.850;10.454;2023-03-01T03:15:55;0.80;;;0.60;;
19798;SDS011;10059;59.850;10.454;2023-03-01T03:18:22;1.63;;;0.83;;
19798;SDS011;10059;59.850;10.454;2023-03-01T03:20:51;1.23;;;0.70;;
19798;SDS011;10059;59.850;10.454;2023-03-01T03:23:19;1.30;;;0.77;;
19798;SDS011;10059;59.850;10.454;2023-03-01T03:25:47;1.43;;;0.70;;
19798;SDS011;10059;59.850;10.454;2023-03-01T03:28:15;0.87;;;0.60;;
19798;SDS011;10059;59.850;10.454;2023-03-01T03:30:43;1.00;;;0.70;;
19798;SDS011;10059;59.850;10.454;2023-03-01T03:33:11;1.10;;;0.53;;
19798;SDS011;10059;59.850;10.454;2023-03-01T03:35:40;1.63;;;0.50;;
19798;SDS011;10059;59.850;10.454;2023-03-01T03:38:08;0.67;;;0.60;;
19798;SDS011;10059;59.850;10.454;2023-03-01T03:40:42;0.77;;;0.60;;
19798;SDS011;10059;59.850;10.454;2023-03-01T03:43:11;0.90;;;0.57;;
19798;SDS011;10059;59.850;10.454;2023-03-01T03:45:39;1.03;;;0.60;;
19798;SDS011;10059;59.850;10.454;2023-03-01T03:48:08;1.17;;;0.83;;
19798;SDS011;10059;59.850;10.454;2023-03-01T03:50:37;1.60;;;0.60;;
19798;SDS011;10059;59.850;10.454;2023-03-01T03:53:05;0.80;;;0.50;;
19798;SDS011;10059;59.850;10.454;2023-03-01T03:55:34;0.57;;;0.57;;
19798;SDS011;10059;59.850;10.454;2023-03-01T03:58:04;0.87;;;0.50;;
19798;SDS011;10059;59.850;10.454;2023-03-01T04:00:33;1.70;;;0.60;;
19798;SDS011;10059;59.850;10.454;2023-03-01T04:03:01;1.30;;;0.60;;
19798;SDS011;10059;59.850;10.454;2023-03-01T04:05:28;0.60;;;0.50;;
19798;SDS011;10059;59.850;10.454;2023-03-01T04:07:57;2.23;;;0.57;;
19798;SDS011;10059;59.850;10.454;2023-03-01T04:10:32;1.30;;;0.50;;
19798;SDS011;10059;59.850;10.454;2023-03-01T04:13:01;0.57;;;0.57;;
19798;SDS011;10059;59.850;10.454;2023-03-01T04:15:28;1.50;;;0.60;;
19798;SDS011;10059;59.850;10.454;2023-03-01T04:17:55;0.50;;;0.50;;
19798;SDS011;10059;59.850;10.454;2023-03-01T04:20:23;4.13;;;0.60;;
19798;SDS011;10059;59.850;10.454;2023-03-01T04:22:56;0.60;;;0.50;;
19798;SDS011;10059;59.850;10.454;2023-03-01T04:25:33;1.20;;;0.70;;
19798;SDS011;10059;59.850;10.454;2023-03-01T04:28:00;0.80;;;0.63;;
19798;SDS011;10059;59.850;10.454;2023-03-01T04:30:27;0.93;;;0.60;;
19798;SDS011;10059;59.850;10.454;2023-03-01T04:32:54;1.80;;;0.50;;
19798;SDS011;10059;59.850;10.454;2023-03-01T04:35:20;1.27;;;0.80;;
19798;SDS011;10059;59.850;10.454;2023-03-01T04:37:47;0.73;;;0.60;;
19798;SDS011;10059;59.850;10.454;2023-03-01T04:40:16;1.00;;;0.57;;
19798;SDS011;10059;59.850;10.454;2023-03-01T04:42:43;1.07;;;0.60;;
19798;SDS011;10059;59.850;10.454;2023-03-01T04:45:10;0.60;;;0.50;;
19798;SDS011;10059;59.850;10.454;2023-03-01T04:47:39;0.90;;;0.57;;
19798;SDS011;10059;59.850;10.454;2023-03-01T04:50:08;1.50;;;0.70;;
19798;SDS011;10059;59.850;10.454;2023-03-01T04:52:36;0.60;;;0.60;;
19798;SDS011;10059;59.850;10.454;2023-03-01T04:55:03;0.57;;;0.57;;
19798;SDS011;10059;59.850;10.454;2023-03-01T04:57:32;1.13;;;0.70;;
19798;SDS011;10059;59.850;10.454;2023-03-01T05:00:00;1.97;;;0.70;;
19798;SDS011;10059;59.850;10.454;2023-03-01T05:02:30;0.50;;;0.50;;
19798;SDS011;10059;59.850;10.454;2023-03-01T05:04:57;2.13;;;0.57;;
19798;SDS011;10059;59.850;10.454;2023-03-01T05:07:24;0.60;;;0.60;;
19798;SDS011;10059;59.850;10.454;2023-03-01T05:09:51;0.80;;;0.53;;
19798;SDS011;10059;59.850;10.454;2023-03-01T05:12:19;1.93;;;0.60;;
19798;SDS011;10059;59.850;10.454;2023-03-01T05:14:47;1.00;;;0.60;;
19798;SDS011;10059;59.850;10.454;2023-03-01T05:17:16;1.70;;;0.70;;
19798;SDS011;10059;59.850;10.454;2023-03-01T05:19:42;0.60;;;0.60;;
19798;SDS011;10059;59.850;10.454;2023-03-01T05:22:09;0.97;;;0.60;;
19798;SDS011;10059;59.850;10.454;2023-03-01T05:24:37;1.63;;;0.60;;
19798;SDS011;10059;59.850;10.454;2023-03-01T05:27:04;0.50;;;0.50;;
19798;SDS011;10059;59.850;10.454;2023-03-01T05:29:31;3.10;;;0.50;;
19798;SDS011;10059;59.850;10.454;2023-03-01T05:32:01;1.20;;;0.60;;
19798;SDS011;10059;59.850;10.454;2023-03-01T05:34:29;1.70;;;0.60;;
19798;SDS011;10059;59.850;10.454;2023-03-01T05:36:57;0.77;;;0.60;;
19798;SDS011;10059;59.850;10.454;2023-03-01T05:39:25;0.77;;;0.70;;
19798;SDS011;10059;59.850;10.454;2023-03-01T05:41:53;1.40;;;0.80;;
19798;SDS011;10059;59.850;10.454;2023-03-01T05:44:21;0.60;;;0.50;;
19798;SDS011;10059;59.850;10.454;2023-03-01T05:46:48;1.20;;;0.60;;
19798;SDS011;10059;59.850;10.454;2023-03-01T05:49:17;1.70;;;0.80;;
19798;SDS011;10059;59.850;10.454;2023-03-01T05:51:47;0.97;;;0.60;;
19798;SDS011;10059;59.850;10.454;2023-03-01T05:54:15;0.83;;;0.60;;
19798;SDS011;10059;59.850;10.454;2023-03-01T05:56:42;1.10;;;0.60;;
19798;SDS011;10059;59.850;10.454;2023-03-01T05:59:09;0.80;;;0.47;;
19798;SDS011;10059;59.850;10.454;2023-03-01T06:01:36;0.50;;;0.50;;
19798;SDS011;10059;59.850;10.454;2023-03-01T06:04:03;0.73;;;0.60;;
19798;SDS011;10059;59.850;10.454;2023-03-01T06:06:34;1.00;;;0.60;;
19798;SDS011;10059;59.850;10.454;2023-03-01T06:09:02;1.30;;;0.80;;
19798;SDS011;10059;59.850;10.454;2023-03-01T06:11:29;1.03;;;0.60;;
19798;SDS011;10059;59.850;10.454;2023-03-01T06:13:56;1.97;;;0.90;;
19798;SDS011;10059;59.850;10.454;2023-03-01T06:16:23;1.43;;;1.00;;
19798;SDS011;10059;59.850;10.454;2023-03-01T06:18:50;4.80;;;1.40;;
19798;SDS011;10059;59.850;10.454;2023-03-01T06:21:16;1.70;;;0.87;;
19798;SDS011;10059;59.850;10.454;2023-03-01T06:23:45;1.70;;;0.60;;
19798;SDS011;10059;59.850;10.454;2023-03-01T06:26:12;1.17;;;0.60;;
19798;SDS011;10059;59.850;10.454;2023-03-01T06:28:38;0.87;;;0.50;;
19798;SDS011;10059;59.850;10.454;2023-03-01T06:31:05;1.83;;;0.70;;
19798;SDS011;10059;59.850;10.454;2023-03-01T06:33:33;0.60;;;0.50;;
19798;SDS011;10059;59.850;10.454;2023-03-01T06:36:01;1.23;;;0.67;;
19798;SDS011;10059;59.850;10.454;2023-03-01T06:38:27;1.33;;;0.70;;
19798;SDS011;10059;59.850;10.454;2023-03-01T06:40:55;1.90;;;0.60;;
19798;SDS011;10059;59.850;10.454;2023-03-01T06:43:22;1.63;;;0.70;;
19798;SDS011;10059;59.850;10.454;2023-03-01T06:45:50;0.83;;;0.70;;
19798;SDS011;10059;59.850;10.454;2023-03-01T06:48:16;1.10;;;0.60;;
19798;SDS011;10059;59.850;10.454;2023-03-01T06:50:43;2.00;;;0.80;;
19798;SDS011;10059;59.850;10.454;2023-03-01T06:53:10;0.83;;;0.80;;
19798;SDS011;10059;59.850;10.454;2023-03-01T06:55:37;0.83;;;0.60;;
19798;SDS011;10059;59.850;10.454;2023-03-01T06:58:05;1.33;;;0.80;;
19798;SDS011;10059;59.850;10.454;2023-03-01T07:00:32;2.70;;;1.00;;
19798;SDS011;10059;59.850;10.454;2023-03-01T07:02:59;2.97;;;0.70;;
19798;SDS011;10059;59.850;10.454;2023-03-01T07:05:27;3.60;;;0.73;;
19798;SDS011;10059;59.850;10.454;2023-03-01T07:07:55;0.60;;;0.60;;
19798;SDS011;10059;59.850;10.454;2023-03-01T07:10:21;2.27;;;0.40;;
19798;SDS011;10059;59.850;10.454;2023-03-01T07:12:48;0.80;;;0.47;;
19798;SDS011;10059;59.850;10.454;2023-03-01T07:15:17;1.00;;;0.47;;
19798;SDS011;10059;59.850;10.454;2023-03-01T07:17:44;1.70;;;0.90;;
19798;SDS011;10059;59.850;10.454;2023-03-01T07:20:12;1.37;;;1.00;;
19798;SDS011;10059;59.850;10.454;2023-03-01T07:22:40;0.70;;;0.40;;
19798;SDS011;10059;59.850;10.454;2023-03-01T07:25:08;1.97;;;0.70;;
19798;SDS011;10059;59.850;10.454;2023-03-01T07:27:35;1.03;;;0.60;;
19798;SDS011;10059;59.850;10.454;2023-03-01T07:30:03;1.37;;;0.40;;
19798;SDS011;10059;59.850;10.454;2023-03-01T07:32:32;0.53;;;0.40;;
19798;SDS011;10059;59.850;10.454;2023-03-01T07:34:59;2.03;;;0.47;;
19798;SDS011;10059;59.850;10.454;2023-03-01T07:37:25;0.60;;;0.40;;
19798;SDS011;10059;59.850;10.454;2023-03-01T07:39:52;0.87;;;0.30;;
19798;SDS011;10059;59.850;10.454;2023-03-01T07:42:19;1.60;;;0.67;;
19798;SDS011;10059;59.850;10.454;2023-03-01T07:44:46;1.90;;;1.70;;
19798;SDS011;10059;59.850;10.454;2023-03-01T07:47:13;5.77;;;2.20;;
19798;SDS011;10059;59.850;10.454;2023-03-01T07:49:41;5.17;;;1.97;;
19798;SDS011;10059;59.850;10.454;2023-03-01T07:52:09;7.33;;;2.77;;
19798;SDS011;10059;59.850;10.454;2023-03-01T07:54:36;4.67;;;1.00;;
19798;SDS011;10059;59.850;10.454;2023-03-01T07:57:03;4.53;;;1.10;;
19798;SDS011;10059;59.850;10.454;2023-03-01T07:59:30;0.63;;;0.33;;
19798;SDS011;10059;59.850;10.454;2023-03-01T08:01:57;0.40;;;0.40;;
19798;SDS011;10059;59.850;10.454;2023-03-01T08:04:24;0.60;;;0.40;;
19798;SDS011;10059;59.850;10.454;2023-03-01T08:06:53;2.20;;;0.50;;
19798;SDS011;10059;59.850;10.454;2023-03-01T08:09:20;0.60;;;0.33;;
19798;SDS011;10059;59.850;10.454;2023-03-01T08:11:47;0.67;;;0.37;;
19798;SDS011;10059;59.850;10.454;2023-03-01T08:14:14;0.90;;;0.40;;
19798;SDS011;10059;59.850;10.454;2023-03-01T08:16:41;1.63;;;0.50;;
19798;SDS011;10059;59.850;10.454;2023-03-01T08:19:08;12.07;;;2.07;;
19798;SDS011;10059;59.850;10.454;2023-03-01T08:21:37;15.57;;;2.37;;
19798;SDS011;10059;59.850;10.454;2023-03-01T08:24:06;6.83;;;1.87;;
19798;SDS011;10059;59.850;10.454;2023-03-01T08:26:35;11.97;;;2.77;;
19798;SDS011;10059;59.850;10.454;2023-03-01T08:29:02;10.37;;;2.10;;
19798;SDS011;10059;59.850;10.454;2023-03-01T08:31:30;14.00;;;5.83;;
19798;SDS011;10059;59.850;10.454;2023-03-01T08:34:00;6.77;;;3.37;;
19798;SDS011;10059;59.850;10.454;2023-03-01T08:36:29;3.40;;;1.07;;
19798;SDS011;10059;59.850;10.454;2023-03-01T08:38:57;1.57;;;0.60;;
19798;SDS011;10059;59.850;10.454;2023-03-01T08:41:26;0.63;;;0.50;;
19798;SDS011;10059;59.850;10.454;2023-03-01T08:43:53;1.03;;;0.40;;
19798;SDS011;10059;59.850;10.454;2023-03-01T08:46:23;0.27;;;0.20;;
19798;SDS011;10059;59.850;10.454;2023-03-01T08:48:50;1.13;;;0.50;;
19798;SDS011;10059;59.850;10.454;2023-03-01T08:51:18;2.40;;;0.50;;
19798;SDS011;10059;59.850;10.454;2023-03-01T08:53:46;0.60;;;0.40;;
19798;SDS011;10059;59.850;10.454;2023-03-01T08:56:14;2.03;;;1.00;;
19798;SDS011;10059;59.850;10.454;2023-03-01T08:58:45;0.40;;;0.20;;
19798;SDS011;10059;59.850;10.454;2023-03-01T09:01:13;0.37;;;0.20;;
19798;SDS011;10059;59.850;10.454;2023-03-01T09:03:41;0.50;;;0.10;;
19798;SDS011;10059;59.850;10.454;2023-03-01T09:06:09;11.23;;;6.70;;
19798;SDS011;10059;59.850;10.454;2023-03-01T09:08:37;22.73;;;12.73;;
19798;SDS011;10059;59.850;10.454;2023-03-01T09:11:06;2.90;;;0.90;;
19798;SDS011;10059;59.850;10.454;2023-03-01T09:13:34;1.10;;;0.20;;
19798;SDS011;10059;59.850;10.454;2023-03-01T09:16:04;1.07;;;0.30;;
19798;SDS011;10059;59.850;10.454;2023-03-01T09:18:32;2.97;;;0.20;;
19798;SDS011;10059;59.850;10.454;2023-03-01T09:21:03;0.60;;;0.23;;
19798;SDS011;10059;59.850;10.454;2023-03-01T09:23:32;0.80;;;0.43;;
19798;SDS011;10059;59.850;10.454;2023-03-01T09:25:59;2.83;;;0.97;;
19798;SDS011;10059;59.850;10.454;2023-03-01T09:28:26;4.30;;;1.20;;
19798;SDS011;10059;59.850;10.454;2023-03-01T09:30:53;6.07;;;1.00;;
19798;SDS011;10059;59.850;10.454;2023-03-01T09:33:21;3.07;;;1.10;;
19798;SDS011;10059;59.850;10.454;2023-03-01T09:35:48;5.73;;;1.10;;
19798;SDS011;10059;59.850;10.454;2023-03-01T09:38:14;4.77;;;1.00;;
19798;SDS011;10059;59.850;10.454;2023-03-01T09:40:42;1.17;;;0.20;;
19798;SDS011;10059;59.850;10.454;2023-03-01T09:43:14;0.27;;;0.20;;
19798;SDS011;10059;59.850;10.454;2023-03-01T09:45:46;0.10;;;0.10;;
19798;SDS011;10059;59.850;10.454;2023-03-01T09:48:16;0.80;;;0.20;;
19798;SDS011;10059;59.850;10.454;2023-03-01T09:50:48;0.70;;;0.20;;
19798;SDS011;10059;59.850;10.454;2023-03-01T09:53:16;7.23;;;1.70;;
19798;SDS011;10059;59.850;10.454;2023-03-01T09:55:46;11.27;;;2.13;;
19798;SDS011;10059;59.850;10.454;2023-03-01T10:01:10;13.47;;;2.77;;
19798;SDS011;10059;59.850;10.454;2023-03-01T10:03:52;6.67;;;2.57;;
19798;SDS011;10059;59.850;10.454;2023-03-01T10:06:31;6.10;;;1.43;;
19798;SDS011;10059;59.850;10.454;2023-03-01T10:08:58;6.37;;;1.53;;
19798;SDS011;10059;59.850;10.454;2023-03-01T10:11:28;2.27;;;1.00;;
19798;SDS011;10059;59.850;10.454;2023-03-01T10:13:59;0.43;;;0.10;;
19798;SDS011;10059;59.850;10.454;2023-03-01T10:16:34;0.20;;;0.10;;
19798;SDS011;10059;59.850;10.454;2023-03-01T10:19:08;0.50;;;0.20;;
19798;SDS011;10059;59.850;10.454;2023-03-01T10:21:41;0.47;;;0.20;;
19798;SDS011;10059;59.850;10.454;2023-03-01T10:24:12;0.23;;;0.20;;
19798;SDS011;10059;59.850;10.454;2023-03-01T10:26:48;0.10;;;0.10;;
19798;SDS011;10059;59.850;10.454;2023-03-01T10:29:22;0.47;;;0.20;;
19798;SDS011;10059;59.850;10.454;2023-03-01T10:31:52;0.63;;;0.20;;
19798;SDS011;10059;59.850;10.454;2023-03-01T10:34:21;0.83;;;0.27;;
19798;SDS011;10059;59.850;10.454;2023-03-01T10:36:55;0.40;;;0.27;;
19798;SDS011;10059;59.850;10.454;2023-03-01T10:39:25;0.30;;;0.20;;
19798;SDS011;10059;59.850;10.454;2023-03-01T10:41:57;0.20;;;0.10;;
19798;SDS011;10059;59.850;10.454;2023-03-01T10:44:41;0.10;;;0.10;;
19798;SDS011;10059;59.850;10.454;2023-03-01T10:49:58;0.10;;;0.00;;
19798;SDS011;10059;59.850;10.454;2023-03-01T10:52:29;0.20;;;0.10;;
19798;SDS011;10059;59.850;10.454;2023-03-01T10:54:58;0.20;;;0.10;;
19798;SDS011;10059;59.850;10.454;2023-03-01T10:57:34;0.03;;;0.03;;
19798;SDS011;10059;59.850;10.454;2023-03-01T11:00:20;2.00;;;0.20;;
19798;SDS011;10059;59.850;10.454;2023-03-01T11:03:01;1.53;;;0.40;;
19798;SDS011;10059;59.850;10.454;2023-03-01T11:05:35;1.53;;;1.10;;
19798;SDS011;10059;59.850;10.454;2023-03-01T11:08:04;0.60;;;0.40;;
19798;SDS011;10059;59.850;10.454;2023-03-01T11:10:31;0.40;;;0.20;;
19798;SDS011;10059;59.850;10.454;2023-03-01T11:13:06;0.67;;;0.20;;
19798;SDS011;10059;59.850;10.454;2023-03-01T11:15:34;1.03;;;0.20;;
19798;SDS011;10059;59.850;10.454;2023-03-01T11:18:02;0.20;;;0.20;;
19798;SDS011;10059;59.850;10.454;2023-03-01T11:20:29;0.63;;;0.13;;
19798;SDS011;10059;59.850;10.454;2023-03-01T11:22:59;0.30;;;0.20;;
19798;SDS011;10059;59.850;10.454;2023-03-01T11:25:32;0.67;;;0.30;;
19798;SDS011;10059;59.850;10.454;2023-03-01T11:28:03;0.50;;;0.30;;
19798;SDS011;10059;59.850;10.454;2023-03-01T11:30:32;0.93;;;0.20;;
19798;SDS011;10059;59.850;10.454;2023-03-01T11:33:05;0.87;;;0.20;;
19798;SDS011;10059;59.850;10.454;2023-03-01T11:35:41;0.53;;;0.20;;
19798;SDS011;10059;59.850;10.454;2023-03-01T11:38:16;0.53;;;0.20;;
19798;SDS011;10059;59.850;10.454;2023-03-01T11:40:49;0.43;;;0.23;;
19798;SDS011;10059;59.850;10.454;2023-03-01T11:43:26;0.80;;;0.20;;
19798;SDS011;10059;59.850;10.454;2023-03-01T11:46:02;0.37;;;0.30;;
19798;SDS011;10059;59.850;10.454;2023-03-01T11:48:52;0.30;;;0.10;;
19798;SDS011;10059;59.850;10.454;2023-03-01T11:51:34;0.40;;;0.20;;
19798;SDS011;10059;59.850;10.454;2023-03-01T11:54:18;0.20;;;0.20;;
19798;SDS011;10059;59.850;10.454;2023-03-01T11:56:57;0.40;;;0.23;;
19798;SDS011;10059;59.850;10.454;2023-03-01T12:02:26;1.30;;;0.20;;
19798;SDS011;10059;59.850;10.454;2023-03-01T12:05:20;0.20;;;0.20;;
19798;SDS011;10059;59.850;10.454;2023-03-01T12:08:01;0.47;;;0.20;;
19798;SDS011;10059;59.850;10.454;2023-03-01T12:10:37;0.40;;;0.20;;
19798;SDS011;10059;59.850;10.454;2023-03-01T12:13:20;0.20;;;0.20;;
19798;SDS011;10059;59.850;10.454;2023-03-01T12:16:24;0.37;;;0.30;;
19798;SDS011;10059;59.850;10.454;2023-03-01T12:19:01;1.07;;;0.30;;
19798;SDS011;10059;59.850;10.454;2023-03-01T12:21:49;0.40;;;0.30;;
19798;SDS011;10059;59.850;10.454;2023-03-01T12:24:37;1.47;;;0.20;;
19798;SDS011;10059;59.850;10.454;2023-03-01T12:27:21;0.90;;;0.30;;
19798;SDS011;10059;59.850;10.454;2023-03-01T12:30:01;0.73;;;0.23;;
19798;SDS011;10059;59.850;10.454;2023-03-01T12:32:45;1.00;;;0.20;;
19798;SDS011;10059;59.850;10.454;2023-03-01T12:35:27;0.30;;;0.20;;
19798;SDS011;10059;59.850;10.454;2023-03-01T12:38:08;0.13;;;0.13;;
19798;SDS011;10059;59.850;10.454;2023-03-01T12:43:51;0.70;;;0.20;;
19798;SDS011;10059;59.850;10.454;2023-03-01T12:46:32;0.17;;;0.13;;
19798;SDS011;10059;59.850;10.454;2023-03-01T12:49:13;0.70;;;0.30;;
19798;SDS011;10059;59.850;10.454;2023-03-01T12:51:42;2.30;;;0.20;;
19798;SDS011;10059;59.850;10.454;2023-03-01T12:54:19;0.40;;;0.20;;
19798;SDS011;10059;59.850;10.454;2023-03-01T12:56:52;2.93;;;0.20;;
19798;SDS011;10059;59.850;10.454;2023-03-01T12:59:21;0.20;;;0.17;;
19798;SDS011;10059;59.850;10.454;2023-03-01T13:02:00;1.07;;;0.10;;
19798;SDS011;10059;59.850;10.454;2023-03-01T13:04:35;0.50;;;0.20;;
19798;SDS011;10059;59.850;10.454;2023-03-01T13:07:16;0.20;;;0.20;;
19798;SDS011;10059;59.850;10.454;2023-03-01T13:09:54;1.17;;;0.20;;
19798;SDS011;10059;59.850;10.454;2023-03-01T13:12:50;2.10;;;0.13;;
19798;SDS011;10059;59.850;10.454;2023-03-01T13:15:25;0.60;;;0.00;;
19798;SDS011;10059;59.850;10.454;2023-03-01T13:18:01;1.03;;;0.20;;
19798;SDS011;10059;59.850;10.454;2023-03-01T13:20:31;0.17;;;0.10;;
19798;SDS011;10059;59.850;10.454;2023-03-01T13:23:02;2.47;;;0.27;;
19798;SDS011;10059;59.850;10.454;2023-03-01T13:34:43;0.13;;;0.10;;
19798;SDS011;10059;59.850;10.454;2023-03-01T13:37:21;1.53;;;0.30;;
19798;SDS011;10059;59.850;10.454;2023-03-01T13:39:54;2.57;;;0.20;;
19798;SDS011;10059;59.850;10.454;2023-03-01T13:42:31;0.63;;;0.10;;
19798;SDS011;10059;59.850;10.454;2023-03-01T13:45:02;0.17;;;0.10;;
19798;SDS011;10059;59.850;10.454;2023-03-01T13:47:31;0.30;;;0.30;;
19798;SDS011;10059;59.850;10.454;2023-03-01T13:50:03;2.13;;;0.20;;
19798;SDS011;10059;59.850;10.454;2023-03-01T13:52:37;0.67;;;0.20;;
19798;SDS011;10059;59.850;10.454;2023-03-01T13:55:06;0.20;;;0.20;;
19798;SDS011;10059;59.850;10.454;2023-03-01T13:57:44;0.13;;;0.10;;
19798;SDS011;10059;59.850;10.454;2023-03-01T14:00:25;0.70;;;0.20;;
19798;SDS011;10059;59.850;10.454;2023-03-01T14:03:05;0.43;;;0.10;;
19798;SDS011;10059;59.850;10.454;2023-03-01T14:05:40;0.77;;;0.30;;
19798;SDS011;10059;59.850;10.454;2023-03-01T14:08:18;0.27;;;0.27;;
19798;SDS011;10059;59.850;10.454;2023-03-01T14:10:54;0.57;;;0.27;;
19798;SDS011;10059;59.850;10.454;2023-03-01T14:13:49;0.47;;;0.23;;
19798;SDS011;10059;59.850;10.454;2023-03-01T14:16:39;0.60;;;0.30;;
19798;SDS011;10059;59.850;10.454;2023-03-01T14:19:14;0.40;;;0.30;;
19798;SDS011;10059;59.850;10.454;2023-03-01T14:21:46;0.30;;;0.20;;
19798;SDS011;10059;59.850;10.454;2023-03-01T14:24:17;0.50;;;0.20;;
19798;SDS011;10059;59.850;10.454;2023-03-01T14:26:46;0.30;;;0.23;;
19798;SDS011;10059;59.850;10.454;2023-03-01T14:29:26;0.57;;;0.27;;
19798;SDS011;10059;59.850;10.454;2023-03-01T14:31:54;0.67;;;0.20;;
19798;SDS011;10059;59.850;10.454;2023-03-01T14:34:21;0.87;;;0.30;;
19798;SDS011;10059;59.850;10.454;2023-03-01T14:36:50;0.73;;;0.30;;
19798;SDS011;10059;59.850;10.454;2023-03-01T14:39:18;0.63;;;0.20;;
19798;SDS011;10059;59.850;10.454;2023-03-01T14:41:46;0.20;;;0.20;;
19798;SDS011;10059;59.850;10.454;2023-03-01T14:44:14;1.00;;;0.20;;
19798;SDS011;10059;59.850;10.454;2023-03-01T14:46:45;0.13;;;0.13;;
19798;SDS011;10059;59.850;10.454;2023-03-01T14:49:13;0.50;;;0.30;;
19798;SDS011;10059;59.850;10.454;2023-03-01T14:51:45;0.30;;;0.30;;
19798;SDS011;10059;59.850;10.454;2023-03-01T14:54:20;0.63;;;0.40;;
19798;SDS011;10059;59.850;10.454;2023-03-01T14:56:50;0.63;;;0.20;;
19798;SDS011;10059;59.850;10.454;2023-03-01T14:59:19;0.40;;;0.20;;
19798;SDS011;10059;59.850;10.454;2023-03-01T15:01:48;0.20;;;0.20;;
19798;SDS011;10059;59.850;10.454;2023-03-01T15:04:16;0.30;;;0.30;;
19798;SDS011;10059;59.850;10.454;2023-03-01T15:06:46;0.20;;;0.20;;
19798;SDS011;10059;59.850;10.454;2023-03-01T15:09:14;1.33;;;0.30;;
19798;SDS011;10059;59.850;10.454;2023-03-01T15:11:44;0.33;;;0.30;;
19798;SDS011;10059;59.850;10.454;2023-03-01T15:17:15;0.97;;;0.30;;